sensor_id;sensor_type;location;lat;lon;timestamp;P1;durP1;ratioP1;P2;durP2;ratioP2
39128;SDS011;24864;49.940;19.770;2023-07-31T00:01:06;4.47;;;2.47;;
39128;SDS011;24864;49.940;19.770;2023-07-31T00:03:35;3.63;;;2.80;;
39128;SDS011;24864;49.940;19.770;2023-07-31T00:06:03;4.60;;;2.47;;
39128;SDS011;24864;49.940;19.770;2023-07-31T00:08:31;4.55;;;2.72;;
39128;SDS011;24864;49.940;19.770;2023-07-31T00:10:59;2.72;;;2.53;;
39128;SDS011;24864;49.940;19.770;2023-07-31T00:13:27;4.20;;;2.45;;
39128;SDS011;24864;49.940;19.770;2023-07-31T00:15:55;2.50;;;2.20;;
39128;SDS011;24864;49.940;19.770;2023-07-31T00:18:25;5.20;;;2.33;;
39128;SDS011;24864;49.940;19.770;2023-07-31T00:20:53;4.55;;;2.30;;
39128;SDS011;24864;49.940;19.770;2023-07-31T00:23:21;4.15;;;2.22;;
39128;SDS011;24864;49.940;19.770;2023-07-31T00:25:49;2.40;;;1.85;;
39128;SDS011;24864;49.940;19.770;2023-07-31T00:28:18;3.35;;;2.00;;
39128;SDS011;24864;49.940;19.770;2023-07-31T00:30:46;2.75;;;2.00;;
39128;SDS011;24864;49.940;19.770;2023-07-31T00:33:14;3.40;;;2.10;;
39128;SDS011;24864;49.940;19.770;2023-07-31T00:35:44;3.30;;;1.95;;
39128;SDS011;24864;49.940;19.770;2023-07-31T00:38:12;4.95;;;1.92;;
39128;SDS011;24864;49.940;19.770;2023-07-31T00:40:40;3.10;;;1.77;;
39128;SDS011;24864;49.940;19.770;2023-07-31T00:43:08;4.22;;;1.70;;
39128;SDS011;24864;49.940;19.770;2023-07-31T00:45:36;2.60;;;1.80;;
39128;SDS011;24864;49.940;19.770;2023-07-31T00:48:05;4.40;;;1.85;;
39128;SDS011;24864;49.940;19.770;2023-07-31T00:50:34;3.08;;;1.88;;
39128;SDS011;24864;49.940;19.770;2023-07-31T00:53:04;2.97;;;1.77;;
39128;SDS011;24864;49.940;19.770;2023-07-31T00:55:32;2.75;;;1.83;;
39128;SDS011;24864;49.940;19.770;2023-07-31T00:58:00;5.07;;;1.80;;
39128;SDS011;24864;49.940;19.770;2023-07-31T01:03:23;3.20;;;2.00;;
39128;SDS011;24864;49.940;19.770;2023-07-31T01:05:54;3.13;;;1.98;;
39128;SDS011;24864;49.940;19.770;2023-07-31T01:08:38;2.88;;;2.22;;
39128;SDS011;24864;49.940;19.770;2023-07-31T01:11:13;4.38;;;2.00;;
39128;SDS011;24864;49.940;19.770;2023-07-31T01:13:44;4.35;;;2.20;;
39128;SDS011;24864;49.940;19.770;2023-07-31T01:16:12;6.10;;;2.03;;
39128;SDS011;24864;49.940;19.770;2023-07-31T01:18:40;3.60;;;2.25;;
39128;SDS011;24864;49.940;19.770;2023-07-31T01:21:14;2.58;;;2.00;;
39128;SDS011;24864;49.940;19.770;2023-07-31T01:24:08;2.85;;;2.00;;
39128;SDS011;24864;49.940;19.770;2023-07-31T01:26:51;2.38;;;1.80;;
39128;SDS011;24864;49.940;19.770;2023-07-31T01:29:25;6.45;;;2.50;;
39128;SDS011;24864;49.940;19.770;2023-07-31T01:31:58;2.40;;;1.90;;
39128;SDS011;24864;49.940;19.770;2023-07-31T01:34:29;3.00;;;1.98;;
39128;SDS011;24864;49.940;19.770;2023-07-31T01:36:58;2.70;;;2.40;;
39128;SDS011;24864;49.940;19.770;2023-07-31T01:39:26;2.75;;;2.50;;
39128;SDS011;24864;49.940;19.770;2023-07-31T01:41:56;2.97;;;1.85;;
39128;SDS011;24864;49.940;19.770;2023-07-31T01:44:24;4.03;;;2.17;;
39128;SDS011;24864;49.940;19.770;2023-07-31T01:46:52;4.45;;;2.35;;
39128;SDS011;24864;49.940;19.770;2023-07-31T01:49:20;3.22;;;2.15;;
39128;SDS011;24864;49.940;19.770;2023-07-31T01:51:49;2.97;;;2.10;;
39128;SDS011;24864;49.940;19.770;2023-07-31T01:54:17;2.78;;;2.05;;
39128;SDS011;24864;49.940;19.770;2023-07-31T01:56:45;2.72;;;1.92;;
39128;SDS011;24864;49.940;19.770;2023-07-31T01:59:14;4.32;;;2.20;;
39128;SDS011;24864;49.940;19.770;2023-07-31T02:01:43;2.90;;;1.98;;
39128;SDS011;24864;49.940;19.770;2023-07-31T02:04:11;3.05;;;2.03;;
39128;SDS011;24864;49.940;19.770;2023-07-31T02:06:39;2.88;;;1.92;;
39128;SDS011;24864;49.940;19.770;2023-07-31T02:09:07;3.63;;;2.08;;
39128;SDS011;24864;49.940;19.770;2023-07-31T02:11:36;2.80;;;2.17;;
39128;SDS011;24864;49.940;19.770;2023-07-31T02:14:04;5.93;;;2.10;;
39128;SDS011;24864;49.940;19.770;2023-07-31T02:16:33;2.17;;;1.73;;
39128;SDS011;24864;49.940;19.770;2023-07-31T02:19:01;6.13;;;2.20;;
39128;SDS011;24864;49.940;19.770;2023-07-31T02:21:29;7.45;;;2.22;;
39128;SDS011;24864;49.940;19.770;2023-07-31T02:23:58;4.90;;;2.33;;
39128;SDS011;24864;49.940;19.770;2023-07-31T02:26:26;2.25;;;1.83;;
39128;SDS011;24864;49.940;19.770;2023-07-31T02:28:54;3.63;;;2.33;;
39128;SDS011;24864;49.940;19.770;2023-07-31T02:31:22;3.47;;;2.08;;
39128;SDS011;24864;49.940;19.770;2023-07-31T02:33:51;3.90;;;2.38;;
39128;SDS011;24864;49.940;19.770;2023-07-31T02:36:20;2.05;;;1.85;;
39128;SDS011;24864;49.940;19.770;2023-07-31T02:38:48;2.72;;;2.15;;
39128;SDS011;24864;49.940;19.770;2023-07-31T02:41:16;4.60;;;2.47;;
39128;SDS011;24864;49.940;19.770;2023-07-31T02:43:44;6.93;;;2.38;;
39128;SDS011;24864;49.940;19.770;2023-07-31T02:46:12;2.60;;;2.20;;
39128;SDS011;24864;49.940;19.770;2023-07-31T02:48:40;3.70;;;2.80;;
39128;SDS011;24864;49.940;19.770;2023-07-31T02:51:10;3.58;;;2.15;;
39128;SDS011;24864;49.940;19.770;2023-07-31T02:53:38;5.97;;;2.15;;
39128;SDS011;24864;49.940;19.770;2023-07-31T02:56:06;3.13;;;2.22;;
39128;SDS011;24864;49.940;19.770;2023-07-31T02:58:34;3.20;;;2.08;;
39128;SDS011;24864;49.940;19.770;2023-07-31T03:01:02;7.53;;;3.03;;
39128;SDS011;24864;49.940;19.770;2023-07-31T03:03:31;4.82;;;2.40;;
39128;SDS011;24864;49.940;19.770;2023-07-31T03:05:59;3.97;;;2.60;;
39128;SDS011;24864;49.940;19.770;2023-07-31T03:08:28;11.07;;;2.63;;
39128;SDS011;24864;49.940;19.770;2023-07-31T03:10:57;4.57;;;2.60;;
39128;SDS011;24864;49.940;19.770;2023-07-31T03:13:25;4.97;;;2.30;;
39128;SDS011;24864;49.940;19.770;2023-07-31T03:15:53;6.40;;;2.60;;
39128;SDS011;24864;49.940;19.770;2023-07-31T03:18:21;4.78;;;2.15;;
39128;SDS011;24864;49.940;19.770;2023-07-31T03:20:49;3.50;;;2.33;;
39128;SDS011;24864;49.940;19.770;2023-07-31T03:23:17;2.78;;;2.47;;
39128;SDS011;24864;49.940;19.770;2023-07-31T03:25:56;3.40;;;2.55;;
39128;SDS011;24864;49.940;19.770;2023-07-31T03:28:24;3.17;;;2.22;;
39128;SDS011;24864;49.940;19.770;2023-07-31T03:30:55;4.13;;;2.70;;
39128;SDS011;24864;49.940;19.770;2023-07-31T03:33:23;5.07;;;2.50;;
39128;SDS011;24864;49.940;19.770;2023-07-31T03:35:52;4.22;;;2.85;;
39128;SDS011;24864;49.940;19.770;2023-07-31T03:38:20;5.55;;;3.22;;
39128;SDS011;24864;49.940;19.770;2023-07-31T03:40:48;3.75;;;3.05;;
39128;SDS011;24864;49.940;19.770;2023-07-31T03:43:17;4.88;;;2.53;;
39128;SDS011;24864;49.940;19.770;2023-07-31T03:45:46;3.83;;;2.50;;
39128;SDS011;24864;49.940;19.770;2023-07-31T03:48:14;3.55;;;2.60;;
39128;SDS011;24864;49.940;19.770;2023-07-31T03:50:43;3.20;;;2.47;;
39128;SDS011;24864;49.940;19.770;2023-07-31T03:53:11;5.45;;;2.85;;
39128;SDS011;24864;49.940;19.770;2023-07-31T03:55:39;3.70;;;2.55;;
39128;SDS011;24864;49.940;19.770;2023-07-31T03:58:07;5.28;;;3.03;;
39128;SDS011;24864;49.940;19.770;2023-07-31T04:00:37;3.20;;;2.60;;
39128;SDS011;24864;49.940;19.770;2023-07-31T04:03:05;4.45;;;2.30;;
39128;SDS011;24864;49.940;19.770;2023-07-31T04:05:33;5.68;;;2.28;;
39128;SDS011;24864;49.940;19.770;2023-07-31T04:08:05;4.38;;;2.97;;
39128;SDS011;24864;49.940;19.770;2023-07-31T04:10:34;3.13;;;2.30;;
39128;SDS011;24864;49.940;19.770;2023-07-31T04:13:02;5.43;;;2.80;;
39128;SDS011;24864;49.940;19.770;2023-07-31T04:15:30;4.35;;;2.72;;
39128;SDS011;24864;49.940;19.770;2023-07-31T04:18:00;3.53;;;3.20;;
39128;SDS011;24864;49.940;19.770;2023-07-31T04:20:28;7.95;;;3.65;;
39128;SDS011;24864;49.940;19.770;2023-07-31T04:22:56;3.75;;;2.38;;
39128;SDS011;24864;49.940;19.770;2023-07-31T04:25:24;2.92;;;2.47;;
39128;SDS011;24864;49.940;19.770;2023-07-31T04:27:52;4.65;;;4.25;;
39128;SDS011;24864;49.940;19.770;2023-07-31T04:30:20;4.10;;;2.95;;
39128;SDS011;24864;49.940;19.770;2023-07-31T04:32:49;3.38;;;3.00;;
39128;SDS011;24864;49.940;19.770;2023-07-31T04:35:18;3.67;;;2.65;;
39128;SDS011;24864;49.940;19.770;2023-07-31T04:37:46;3.78;;;2.85;;
39128;SDS011;24864;49.940;19.770;2023-07-31T04:40:16;7.95;;;3.88;;
39128;SDS011;24864;49.940;19.770;2023-07-31T04:42:44;9.48;;;5.28;;
39128;SDS011;24864;49.940;19.770;2023-07-31T04:45:13;3.90;;;2.92;;
39128;SDS011;24864;49.940;19.770;2023-07-31T04:47:42;4.80;;;3.13;;
39128;SDS011;24864;49.940;19.770;2023-07-31T04:50:10;8.10;;;2.85;;
39128;SDS011;24864;49.940;19.770;2023-07-31T04:52:39;4.60;;;3.03;;
39128;SDS011;24864;49.940;19.770;2023-07-31T04:55:08;5.60;;;3.22;;
39128;SDS011;24864;49.940;19.770;2023-07-31T04:57:36;5.28;;;4.78;;
39128;SDS011;24864;49.940;19.770;2023-07-31T05:00:05;3.38;;;3.08;;
39128;SDS011;24864;49.940;19.770;2023-07-31T05:02:34;4.20;;;3.70;;
39128;SDS011;24864;49.940;19.770;2023-07-31T05:05:02;3.20;;;2.90;;
39128;SDS011;24864;49.940;19.770;2023-07-31T05:07:31;4.05;;;3.65;;
39128;SDS011;24864;49.940;19.770;2023-07-31T05:10:01;4.68;;;2.92;;
39128;SDS011;24864;49.940;19.770;2023-07-31T05:12:29;3.35;;;2.75;;
39128;SDS011;24864;49.940;19.770;2023-07-31T05:14:57;8.25;;;4.95;;
39128;SDS011;24864;49.940;19.770;2023-07-31T05:17:25;4.55;;;3.00;;
39128;SDS011;24864;49.940;19.770;2023-07-31T05:19:53;5.93;;;5.13;;
39128;SDS011;24864;49.940;19.770;2023-07-31T05:22:21;4.55;;;3.40;;
39128;SDS011;24864;49.940;19.770;2023-07-31T05:24:49;6.53;;;3.35;;
39128;SDS011;24864;49.940;19.770;2023-07-31T05:27:19;6.07;;;3.20;;
39128;SDS011;24864;49.940;19.770;2023-07-31T05:29:47;4.65;;;3.65;;
39128;SDS011;24864;49.940;19.770;2023-07-31T05:32:15;4.95;;;3.30;;
39128;SDS011;24864;49.940;19.770;2023-07-31T05:34:44;4.18;;;3.40;;
39128;SDS011;24864;49.940;19.770;2023-07-31T05:37:12;8.95;;;3.50;;
39128;SDS011;24864;49.940;19.770;2023-07-31T05:39:40;3.80;;;3.30;;
39128;SDS011;24864;49.940;19.770;2023-07-31T05:42:08;3.90;;;3.22;;
39128;SDS011;24864;49.940;19.770;2023-07-31T05:44:38;5.28;;;3.22;;
39128;SDS011;24864;49.940;19.770;2023-07-31T05:47:06;7.63;;;3.70;;
39128;SDS011;24864;49.940;19.770;2023-07-31T05:49:34;4.03;;;3.40;;
39128;SDS011;24864;49.940;19.770;2023-07-31T05:52:02;6.22;;;3.97;;
39128;SDS011;24864;49.940;19.770;2023-07-31T05:54:31;8.10;;;4.35;;
39128;SDS011;24864;49.940;19.770;2023-07-31T05:56:59;4.95;;;3.95;;
39128;SDS011;24864;49.940;19.770;2023-07-31T05:59:27;5.88;;;3.95;;
39128;SDS011;24864;49.940;19.770;2023-07-31T06:01:58;4.72;;;3.83;;
39128;SDS011;24864;49.940;19.770;2023-07-31T06:04:27;7.25;;;3.92;;
39128;SDS011;24864;49.940;19.770;2023-07-31T06:06:55;4.30;;;3.67;;
39128;SDS011;24864;49.940;19.770;2023-07-31T06:09:24;6.78;;;3.95;;
39128;SDS011;24864;49.940;19.770;2023-07-31T06:11:52;6.30;;;3.20;;
39128;SDS011;24864;49.940;19.770;2023-07-31T06:14:20;4.95;;;3.47;;
39128;SDS011;24864;49.940;19.770;2023-07-31T06:16:48;7.63;;;3.60;;
39128;SDS011;24864;49.940;19.770;2023-07-31T06:19:18;4.50;;;3.58;;
39128;SDS011;24864;49.940;19.770;2023-07-31T06:21:46;7.82;;;3.50;;
39128;SDS011;24864;49.940;19.770;2023-07-31T06:24:14;7.28;;;4.00;;
39128;SDS011;24864;49.940;19.770;2023-07-31T06:26:45;7.00;;;3.83;;
39128;SDS011;24864;49.940;19.770;2023-07-31T06:29:13;9.10;;;3.83;;
39128;SDS011;24864;49.940;19.770;2023-07-31T06:31:41;4.60;;;3.42;;
39128;SDS011;24864;49.940;19.770;2023-07-31T06:34:10;6.32;;;3.50;;
39128;SDS011;24864;49.940;19.770;2023-07-31T06:36:39;9.57;;;3.50;;
39128;SDS011;24864;49.940;19.770;2023-07-31T06:39:08;4.97;;;3.50;;
39128;SDS011;24864;49.940;19.770;2023-07-31T06:41:36;5.30;;;2.83;;
39128;SDS011;24864;49.940;19.770;2023-07-31T06:44:05;4.28;;;3.15;;
39128;SDS011;24864;49.940;19.770;2023-07-31T06:46:33;4.45;;;3.10;;
39128;SDS011;24864;49.940;19.770;2023-07-31T06:49:01;7.22;;;3.53;;
39128;SDS011;24864;49.940;19.770;2023-07-31T06:51:29;9.00;;;3.47;;
39128;SDS011;24864;49.940;19.770;2023-07-31T06:54:00;5.95;;;3.63;;
39128;SDS011;24864;49.940;19.770;2023-07-31T06:56:28;5.32;;;3.65;;
39128;SDS011;24864;49.940;19.770;2023-07-31T06:58:56;5.50;;;2.80;;
39128;SDS011;24864;49.940;19.770;2023-07-31T07:01:24;6.43;;;3.45;;
39128;SDS011;24864;49.940;19.770;2023-07-31T07:03:52;5.80;;;3.38;;
39128;SDS011;24864;49.940;19.770;2023-07-31T07:06:21;7.15;;;3.50;;
39128;SDS011;24864;49.940;19.770;2023-07-31T07:08:50;7.30;;;3.58;;
39128;SDS011;24864;49.940;19.770;2023-07-31T07:11:19;6.20;;;3.40;;
39128;SDS011;24864;49.940;19.770;2023-07-31T07:13:48;4.93;;;4.03;;
39128;SDS011;24864;49.940;19.770;2023-07-31T07:16:16;9.23;;;3.50;;
39128;SDS011;24864;49.940;19.770;2023-07-31T07:18:44;9.48;;;3.80;;
39128;SDS011;24864;49.940;19.770;2023-07-31T07:21:29;5.20;;;3.00;;
39128;SDS011;24864;49.940;19.770;2023-07-31T07:23:57;8.90;;;3.30;;
39128;SDS011;24864;49.940;19.770;2023-07-31T07:26:27;7.22;;;3.42;;
39128;SDS011;24864;49.940;19.770;2023-07-31T07:28:55;5.35;;;3.30;;
39128;SDS011;24864;49.940;19.770;2023-07-31T07:31:27;5.70;;;3.88;;
39128;SDS011;24864;49.940;19.770;2023-07-31T07:33:55;6.75;;;3.40;;
39128;SDS011;24864;49.940;19.770;2023-07-31T07:36:24;7.47;;;2.88;;
39128;SDS011;24864;49.940;19.770;2023-07-31T07:38:52;8.65;;;3.47;;
39128;SDS011;24864;49.940;19.770;2023-07-31T07:41:20;11.25;;;3.53;;
39128;SDS011;24864;49.940;19.770;2023-07-31T07:43:49;4.07;;;2.58;;
39128;SDS011;24864;49.940;19.770;2023-07-31T07:46:18;7.32;;;2.90;;
39128;SDS011;24864;49.940;19.770;2023-07-31T07:48:46;6.78;;;3.33;;
39128;SDS011;24864;49.940;19.770;2023-07-31T07:51:14;3.72;;;2.60;;
39128;SDS011;24864;49.940;19.770;2023-07-31T07:53:42;6.88;;;3.00;;
39128;SDS011;24864;49.940;19.770;2023-07-31T07:56:10;6.30;;;3.13;;
39128;SDS011;24864;49.940;19.770;2023-07-31T07:58:39;8.35;;;3.20;;
39128;SDS011;24864;49.940;19.770;2023-07-31T08:01:08;4.70;;;3.05;;
39128;SDS011;24864;49.940;19.770;2023-07-31T08:03:36;8.20;;;3.53;;
39128;SDS011;24864;49.940;19.770;2023-07-31T08:06:04;7.68;;;2.97;;
39128;SDS011;24864;49.940;19.770;2023-07-31T08:08:33;6.60;;;3.03;;
39128;SDS011;24864;49.940;19.770;2023-07-31T08:11:01;6.13;;;3.17;;
39128;SDS011;24864;49.940;19.770;2023-07-31T08:13:29;3.80;;;2.70;;
39128;SDS011;24864;49.940;19.770;2023-07-31T08:15:57;5.60;;;3.10;;
39128;SDS011;24864;49.940;19.770;2023-07-31T08:18:27;4.63;;;3.08;;
39128;SDS011;24864;49.940;19.770;2023-07-31T08:20:55;5.97;;;2.85;;
39128;SDS011;24864;49.940;19.770;2023-07-31T08:23:23;5.82;;;2.80;;
39128;SDS011;24864;49.940;19.770;2023-07-31T08:25:51;5.90;;;2.90;;
39128;SDS011;24864;49.940;19.770;2023-07-31T08:28:19;5.70;;;2.78;;
39128;SDS011;24864;49.940;19.770;2023-07-31T08:30:50;6.10;;;2.50;;
39128;SDS011;24864;49.940;19.770;2023-07-31T08:33:18;7.43;;;2.85;;
39128;SDS011;24864;49.940;19.770;2023-07-31T08:35:47;4.10;;;2.38;;
39128;SDS011;24864;49.940;19.770;2023-07-31T08:38:16;3.33;;;2.20;;
39128;SDS011;24864;49.940;19.770;2023-07-31T08:40:44;4.38;;;2.47;;
39128;SDS011;24864;49.940;19.770;2023-07-31T08:43:12;4.47;;;2.30;;
39128;SDS011;24864;49.940;19.770;2023-07-31T08:45:41;4.43;;;2.22;;
39128;SDS011;24864;49.940;19.770;2023-07-31T08:48:10;5.00;;;2.92;;
39128;SDS011;24864;49.940;19.770;2023-07-31T08:50:39;6.38;;;2.58;;
39128;SDS011;24864;49.940;19.770;2023-07-31T08:53:09;3.10;;;2.17;;
39128;SDS011;24864;49.940;19.770;2023-07-31T08:55:37;4.85;;;2.75;;
39128;SDS011;24864;49.940;19.770;2023-07-31T08:58:06;6.03;;;2.47;;
39128;SDS011;24864;49.940;19.770;2023-07-31T09:00:35;3.85;;;2.10;;
39128;SDS011;24864;49.940;19.770;2023-07-31T09:03:08;6.55;;;2.63;;
39128;SDS011;24864;49.940;19.770;2023-07-31T09:05:37;5.28;;;2.22;;
39128;SDS011;24864;49.940;19.770;2023-07-31T09:08:08;4.32;;;2.22;;
39128;SDS011;24864;49.940;19.770;2023-07-31T09:10:39;4.78;;;2.42;;
39128;SDS011;24864;49.940;19.770;2023-07-31T09:13:08;3.72;;;2.40;;
39128;SDS011;24864;49.940;19.770;2023-07-31T09:15:38;12.48;;;2.80;;
39128;SDS011;24864;49.940;19.770;2023-07-31T09:18:07;8.32;;;2.38;;
39128;SDS011;24864;49.940;19.770;2023-07-31T09:20:36;4.63;;;1.88;;
39128;SDS011;24864;49.940;19.770;2023-07-31T09:23:05;5.15;;;2.33;;
39128;SDS011;24864;49.940;19.770;2023-07-31T09:25:36;3.13;;;1.80;;
39128;SDS011;24864;49.940;19.770;2023-07-31T09:28:05;3.70;;;2.15;;
39128;SDS011;24864;49.940;19.770;2023-07-31T09:30:44;7.65;;;2.67;;
39128;SDS011;24864;49.940;19.770;2023-07-31T09:33:14;4.30;;;1.88;;
39128;SDS011;24864;49.940;19.770;2023-07-31T09:35:43;4.38;;;2.00;;
39128;SDS011;24864;49.940;19.770;2023-07-31T09:38:11;6.28;;;2.30;;
39128;SDS011;24864;49.940;19.770;2023-07-31T09:40:42;8.23;;;2.22;;
39128;SDS011;24864;49.940;19.770;2023-07-31T09:43:12;6.22;;;2.03;;
39128;SDS011;24864;49.940;19.770;2023-07-31T09:45:41;2.80;;;2.00;;
39128;SDS011;24864;49.940;19.770;2023-07-31T09:48:11;6.47;;;2.00;;
39128;SDS011;24864;49.940;19.770;2023-07-31T09:50:40;5.00;;;2.13;;
39128;SDS011;24864;49.940;19.770;2023-07-31T09:53:09;4.72;;;1.90;;
39128;SDS011;24864;49.940;19.770;2023-07-31T09:55:39;4.32;;;2.10;;
39128;SDS011;24864;49.940;19.770;2023-07-31T09:58:10;4.32;;;2.10;;
39128;SDS011;24864;49.940;19.770;2023-07-31T10:00:39;7.80;;;1.88;;
39128;SDS011;24864;49.940;19.770;2023-07-31T10:03:09;9.10;;;1.77;;
39128;SDS011;24864;49.940;19.770;2023-07-31T10:05:42;4.88;;;1.75;;
39128;SDS011;24864;49.940;19.770;2023-07-31T10:08:15;7.55;;;2.08;;
39128;SDS011;24864;49.940;19.770;2023-07-31T10:10:45;6.13;;;1.75;;
39128;SDS011;24864;49.940;19.770;2023-07-31T10:13:14;4.90;;;1.60;;
39128;SDS011;24864;49.940;19.770;2023-07-31T10:15:43;2.53;;;1.67;;
39128;SDS011;24864;49.940;19.770;2023-07-31T10:18:11;4.30;;;1.70;;
39128;SDS011;24864;49.940;19.770;2023-07-31T10:20:40;4.28;;;1.83;;
39128;SDS011;24864;49.940;19.770;2023-07-31T10:23:08;3.28;;;1.95;;
39128;SDS011;24864;49.940;19.770;2023-07-31T10:25:37;4.10;;;2.00;;
39128;SDS011;24864;49.940;19.770;2023-07-31T10:28:07;3.08;;;1.73;;
39128;SDS011;24864;49.940;19.770;2023-07-31T10:30:36;2.95;;;1.83;;
39128;SDS011;24864;49.940;19.770;2023-07-31T10:33:05;3.53;;;1.90;;
39128;SDS011;24864;49.940;19.770;2023-07-31T10:35:33;5.18;;;1.80;;
39128;SDS011;24864;49.940;19.770;2023-07-31T10:38:11;5.13;;;1.77;;
39128;SDS011;24864;49.940;19.770;2023-07-31T10:40:39;4.53;;;1.42;;
39128;SDS011;24864;49.940;19.770;2023-07-31T10:43:09;3.95;;;1.92;;
39128;SDS011;24864;49.940;19.770;2023-07-31T10:45:51;5.53;;;2.05;;
39128;SDS011;24864;49.940;19.770;2023-07-31T10:48:20;2.60;;;1.55;;
39128;SDS011;24864;49.940;19.770;2023-07-31T10:50:50;5.22;;;1.45;;
39128;SDS011;24864;49.940;19.770;2023-07-31T10:53:22;4.32;;;1.85;;
39128;SDS011;24864;49.940;19.770;2023-07-31T10:55:51;4.25;;;1.70;;
39128;SDS011;24864;49.940;19.770;2023-07-31T10:58:21;4.45;;;1.52;;
39128;SDS011;24864;49.940;19.770;2023-07-31T11:00:49;2.95;;;1.63;;
39128;SDS011;24864;49.940;19.770;2023-07-31T11:03:19;3.90;;;1.73;;
39128;SDS011;24864;49.940;19.770;2023-07-31T11:05:49;8.02;;;1.85;;
39128;SDS011;24864;49.940;19.770;2023-07-31T11:08:21;4.32;;;1.50;;
39128;SDS011;24864;49.940;19.770;2023-07-31T11:10:50;11.40;;;2.35;;
39128;SDS011;24864;49.940;19.770;2023-07-31T11:13:34;3.55;;;1.90;;
39128;SDS011;24864;49.940;19.770;2023-07-31T11:16:08;4.82;;;1.90;;
39128;SDS011;24864;49.940;19.770;2023-07-31T11:18:38;5.35;;;2.08;;
39128;SDS011;24864;49.940;19.770;2023-07-31T11:21:07;3.63;;;1.77;;
39128;SDS011;24864;49.940;19.770;2023-07-31T11:23:36;4.55;;;1.90;;
39128;SDS011;24864;49.940;19.770;2023-07-31T11:26:05;5.20;;;1.80;;
39128;SDS011;24864;49.940;19.770;2023-07-31T11:28:35;3.75;;;1.80;;
39128;SDS011;24864;49.940;19.770;2023-07-31T11:31:03;3.97;;;1.70;;
39128;SDS011;24864;49.940;19.770;2023-07-31T11:33:32;7.10;;;1.80;;
39128;SDS011;24864;49.940;19.770;2023-07-31T11:36:00;4.93;;;1.70;;
39128;SDS011;24864;49.940;19.770;2023-07-31T11:38:29;2.20;;;1.60;;
39128;SDS011;24864;49.940;19.770;2023-07-31T11:40:59;2.33;;;1.77;;
39128;SDS011;24864;49.940;19.770;2023-07-31T11:43:29;3.83;;;1.60;;
39128;SDS011;24864;49.940;19.770;2023-07-31T11:46:00;4.53;;;1.30;;
39128;SDS011;24864;49.940;19.770;2023-07-31T11:48:30;5.90;;;1.75;;
39128;SDS011;24864;49.940;19.770;2023-07-31T11:51:01;2.60;;;1.52;;
39128;SDS011;24864;49.940;19.770;2023-07-31T11:53:31;2.80;;;1.63;;
39128;SDS011;24864;49.940;19.770;2023-07-31T11:56:01;4.78;;;1.42;;
39128;SDS011;24864;49.940;19.770;2023-07-31T11:58:31;5.13;;;2.05;;
39128;SDS011;24864;49.940;19.770;2023-07-31T12:01:00;5.00;;;1.80;;
39128;SDS011;24864;49.940;19.770;2023-07-31T12:03:29;3.50;;;1.90;;
39128;SDS011;24864;49.940;19.770;2023-07-31T12:05:58;5.45;;;1.60;;
39128;SDS011;24864;49.940;19.770;2023-07-31T12:08:26;3.10;;;1.48;;
39128;SDS011;24864;49.940;19.770;2023-07-31T12:10:54;2.45;;;1.55;;
39128;SDS011;24864;49.940;19.770;2023-07-31T12:13:30;4.57;;;1.70;;
39128;SDS011;24864;49.940;19.770;2023-07-31T12:16:02;4.30;;;1.50;;
39128;SDS011;24864;49.940;19.770;2023-07-31T12:18:33;2.45;;;1.23;;
39128;SDS011;24864;49.940;19.770;2023-07-31T12:21:02;2.35;;;1.30;;
39128;SDS011;24864;49.940;19.770;2023-07-31T12:23:33;1.87;;;1.50;;
39128;SDS011;24864;49.940;19.770;2023-07-31T12:26:03;2.15;;;1.60;;
39128;SDS011;24864;49.940;19.770;2023-07-31T12:28:34;3.20;;;1.80;;
39128;SDS011;24864;49.940;19.770;2023-07-31T12:31:04;3.47;;;1.45;;
39128;SDS011;24864;49.940;19.770;2023-07-31T12:33:34;2.70;;;1.50;;
39128;SDS011;24864;49.940;19.770;2023-07-31T12:36:07;4.25;;;1.65;;
39128;SDS011;24864;49.940;19.770;2023-07-31T12:38:36;2.63;;;1.30;;
39128;SDS011;24864;49.940;19.770;2023-07-31T12:41:04;8.13;;;1.50;;
39128;SDS011;24864;49.940;19.770;2023-07-31T12:43:33;1.63;;;1.45;;
39128;SDS011;24864;49.940;19.770;2023-07-31T12:46:02;1.98;;;1.67;;
39128;SDS011;24864;49.940;19.770;2023-07-31T12:48:32;3.83;;;1.60;;
39128;SDS011;24864;49.940;19.770;2023-07-31T12:51:00;2.22;;;1.70;;
39128;SDS011;24864;49.940;19.770;2023-07-31T12:53:29;5.70;;;1.83;;
39128;SDS011;24864;49.940;19.770;2023-07-31T12:55:57;3.42;;;1.63;;
39128;SDS011;24864;49.940;19.770;2023-07-31T12:58:25;2.75;;;1.35;;
39128;SDS011;24864;49.940;19.770;2023-07-31T13:00:53;6.10;;;1.55;;
39128;SDS011;24864;49.940;19.770;2023-07-31T13:03:21;3.25;;;1.60;;
39128;SDS011;24864;49.940;19.770;2023-07-31T13:05:51;6.43;;;2.03;;
39128;SDS011;24864;49.940;19.770;2023-07-31T13:08:20;3.90;;;1.65;;
39128;SDS011;24864;49.940;19.770;2023-07-31T13:10:48;5.05;;;1.80;;
39128;SDS011;24864;49.940;19.770;2023-07-31T13:13:16;3.40;;;1.48;;
39128;SDS011;24864;49.940;19.770;2023-07-31T13:15:44;2.38;;;1.60;;
39128;SDS011;24864;49.940;19.770;2023-07-31T13:18:12;2.55;;;1.35;;
39128;SDS011;24864;49.940;19.770;2023-07-31T13:20:41;4.50;;;1.75;;
39128;SDS011;24864;49.940;19.770;2023-07-31T13:23:10;3.80;;;1.88;;
39128;SDS011;24864;49.940;19.770;2023-07-31T13:25:38;4.30;;;1.60;;
39128;SDS011;24864;49.940;19.770;2023-07-31T13:28:07;3.25;;;1.50;;
39128;SDS011;24864;49.940;19.770;2023-07-31T13:30:35;9.48;;;1.63;;
39128;SDS011;24864;49.940;19.770;2023-07-31T13:33:03;3.40;;;1.98;;
39128;SDS011;24864;49.940;19.770;2023-07-31T13:35:43;4.53;;;1.40;;
39128;SDS011;24864;49.940;19.770;2023-07-31T13:38:13;5.32;;;1.90;;
39128;SDS011;24864;49.940;19.770;2023-07-31T13:40:41;2.72;;;1.77;;
39128;SDS011;24864;49.940;19.770;2023-07-31T13:43:09;3.80;;;1.73;;
39128;SDS011;24864;49.940;19.770;2023-07-31T13:45:37;3.60;;;2.00;;
39128;SDS011;24864;49.940;19.770;2023-07-31T13:48:05;3.92;;;1.88;;
39128;SDS011;24864;49.940;19.770;2023-07-31T13:50:33;4.90;;;1.90;;
39128;SDS011;24864;49.940;19.770;2023-07-31T13:53:02;3.22;;;1.85;;
39128;SDS011;24864;49.940;19.770;2023-07-31T13:55:31;5.07;;;1.85;;
39128;SDS011;24864;49.940;19.770;2023-07-31T13:57:59;3.88;;;1.52;;
39128;SDS011;24864;49.940;19.770;2023-07-31T14:00:28;2.25;;;1.50;;
39128;SDS011;24864;49.940;19.770;2023-07-31T14:02:56;8.32;;;2.35;;
39128;SDS011;24864;49.940;19.770;2023-07-31T14:05:24;3.70;;;1.75;;
39128;SDS011;24864;49.940;19.770;2023-07-31T14:07:53;4.95;;;1.83;;
39128;SDS011;24864;49.940;19.770;2023-07-31T14:10:21;5.03;;;2.08;;
39128;SDS011;24864;49.940;19.770;2023-07-31T14:12:50;2.60;;;1.60;;
39128;SDS011;24864;49.940;19.770;2023-07-31T14:15:18;3.55;;;2.05;;
39128;SDS011;24864;49.940;19.770;2023-07-31T14:17:47;4.57;;;1.85;;
39128;SDS011;24864;49.940;19.770;2023-07-31T14:20:15;3.33;;;1.40;;
39128;SDS011;24864;49.940;19.770;2023-07-31T14:22:44;3.28;;;2.05;;
39128;SDS011;24864;49.940;19.770;2023-07-31T14:25:12;3.58;;;1.60;;
39128;SDS011;24864;49.940;19.770;2023-07-31T14:27:41;5.13;;;1.85;;
39128;SDS011;24864;49.940;19.770;2023-07-31T14:30:10;5.43;;;2.30;;
39128;SDS011;24864;49.940;19.770;2023-07-31T14:32:39;5.65;;;1.92;;
39128;SDS011;24864;49.940;19.770;2023-07-31T14:35:07;5.10;;;1.88;;
39128;SDS011;24864;49.940;19.770;2023-07-31T14:37:39;4.55;;;1.73;;
39128;SDS011;24864;49.940;19.770;2023-07-31T14:40:08;3.10;;;1.60;;
39128;SDS011;24864;49.940;19.770;2023-07-31T14:42:37;2.70;;;1.60;;
39128;SDS011;24864;49.940;19.770;2023-07-31T14:45:06;4.70;;;1.80;;
39128;SDS011;24864;49.940;19.770;2023-07-31T14:47:38;3.00;;;1.40;;